Main page
METAR-TAF:

METAR-TAF

Airports :

Hearne Municipal Airport

Hearne, Texas, United States

latitude: 30-52-18N, longitude: 096-37-20W, elevation: 285 ft

Current weather observation

The report was made 26 minutes ago, at 18:15 UTC
Wind 3 mph from the West
Temperature 90°F
Humidity 56%
Pressure 29.97 in. Hg
Visibility: 10 miles
Scattered clouds at a height of 4200 ft
Broken clouds at a height of 5000 ft
Overcast at a height of 6000 ft

METAR: KLHB 141815Z AUTO 27003KT 10SM SCT042 BKN050 OVC060 32/22 A2997 RMK AO2 T03200221

Time: 13:41 (18:41 UTC)


TAF: missing

Weather observations and forecasts of more than 4000 airports (METAR and TAF reports).

The available stations are represented by yellow and red dots on the map.

Hover mouse over dot to see the name of the station.

Then click to see weather observations and forecasts.

To change the map : click on the green buttons with a black cross to zoom in, on the green button with a dash to zoom out, or on the green arrows for adjacent maps.


METAR-TAF: